Time;durP1;ratioP1;P1;durP2;ratioP2;P2;SDS_P1;SDS_P2;PMS_P1;PMS_P2;Temp;Humidity;BMP_temperature;BMP_pressure;BME280_temperature;BME280_humidity;BME280_pressure;Samples;Min_cycle;Max_cycle;Signal;HPM_P1;HPM_P2
2022/08/19 00:02:02;;;;;;;2.50;2.37;;;27.80;76.90;;;;;;5096045;28;20433;-95
2022/08/19 00:04:39;;;;;;;2.40;2.30;;;27.80;76.90;;;;;;5096426;28;20462;-96
2022/08/19 00:07:25;;;;;;;2.57;2.40;;;27.80;76.80;;;;;;5096713;28;20542;-96
2022/08/19 07:28:14;;;;;;;4.10;3.73;;;27.30;78.50;;;;;;4882693;29;20446;-88
2022/08/19 07:30:41;;;;;;;3.53;3.33;;;27.30;78.70;;;;;;4929815;29;20471;-86
2022/08/19 07:33:08;;;;;;;3.80;3.60;;;27.40;78.60;;;;;;4938627;23;20551;-86
2022/08/19 07:35:35;;;;;;;3.77;3.53;;;27.40;78.60;;;;;;4938364;29;20502;-95
2022/08/19 07:38:03;;;;;;;3.93;3.73;;;27.40;78.50;;;;;;4944494;29;20495;-89
2022/08/19 07:40:31;;;;;;;3.93;3.63;;;27.40;78.40;;;;;;4942944;29;20489;-90
2022/08/19 09:51:49;;;;;;;2.60;2.50;;;27.80;77.90;;;;;;4898235;29;21253;-82
2022/08/19 09:54:16;;;;;;;3.50;3.20;;;27.80;77.90;;;;;;4882224;29;20490;-82
2022/08/19 09:56:44;;;;;;;3.70;3.40;;;27.80;78.10;;;;;;4882077;29;20541;-82
2022/08/19 09:59:11;;;;;;;3.40;3.17;;;27.80;78.00;;;;;;4881407;29;21032;-92
2022/08/19 10:01:39;;;;;;;5.37;3.37;;;27.80;77.80;;;;;;4880650;29;20480;-82
2022/08/19 10:04:08;;;;;;;7.80;4.27;;;27.90;77.90;;;;;;4881898;29;20489;-82
2022/08/19 10:06:35;;;;;;;4.13;3.83;;;27.90;77.80;;;;;;4881879;29;20460;-82
2022/08/19 10:09:06;;;;;;;5.50;3.50;;;27.90;77.70;;;;;;4880683;29;20461;-82
2022/08/19 10:11:34;;;;;;;3.90;3.57;;;27.90;77.70;;;;;;4880711;29;20464;-82
2022/08/19 10:14:01;;;;;;;3.60;3.37;;;27.90;77.60;;;;;;4880167;29;20454;-82
2022/08/19 10:16:28;;;;;;;3.73;3.50;;;27.90;77.60;;;;;;4880645;29;21126;-95
2022/08/19 10:18:55;;;;;;;4.23;3.93;;;27.90;77.60;;;;;;4880993;29;20503;-82
2022/08/19 10:21:24;;;;;;;4.90;4.40;;;27.90;77.50;;;;;;4882160;29;20540;-82
2022/08/19 10:23:54;;;;;;;4.10;3.80;;;27.90;77.50;;;;;;4881602;29;20453;-83
2022/08/19 10:26:24;;;;;;;4.57;4.30;;;27.90;77.50;;;;;;4880508;29;20452;-82
2022/08/19 10:28:52;;;;;;;4.30;4.00;;;27.90;77.50;;;;;;4881300;29;20446;-82
2022/08/19 10:31:21;;;;;;;3.63;3.43;;;27.90;77.50;;;;;;4881870;29;20462;-82
2022/08/19 10:33:48;;;;;;;7.23;4.00;;;27.90;77.50;;;;;;4881706;29;20454;-84
2022/08/19 10:36:19;;;;;;;3.50;3.30;;;27.90;77.50;;;;;;4899655;29;20460;-85
2022/08/19 10:38:50;;;;;;;3.90;3.60;;;27.90;77.40;;;;;;4902544;29;20496;-84
2022/08/19 10:41:19;;;;;;;3.47;3.27;;;28.00;77.30;;;;;;4907631;29;20460;-84
2022/08/19 10:43:47;;;;;;;8.27;3.67;;;27.90;77.30;;;;;;4899463;29;20445;-93
2022/08/19 10:46:16;;;;;;;3.30;3.10;;;27.90;77.30;;;;;;4898895;29;20457;-84
2022/08/19 10:48:43;;;;;;;3.93;3.63;;;27.90;77.30;;;;;;4903177;29;20512;-90
2022/08/19 10:53:55;;;;;;;6.43;3.40;;;27.90;77.30;;;;;;4880879;29;20483;-84
2022/08/19 10:59:08;;;;;;;3.77;3.50;;;27.90;77.40;;;;;;4879783;29;21144;-85
2022/08/19 11:01:36;;;;;;;4.03;3.53;;;27.90;78.30;;;;;;4880523;29;20481;-88
2022/08/19 11:04:04;;;;;;;3.30;3.10;;;27.90;77.50;;;;;;4881189;29;20457;-88
2022/08/19 11:06:32;;;;;;;4.43;4.03;;;27.80;77.40;;;;;;4882050;29;20529;-88
2022/08/19 11:09:00;;;;;;;4.37;4.07;;;27.90;77.50;;;;;;4881771;29;20814;-88
2022/08/19 11:11:28;;;;;;;3.60;3.30;;;27.90;77.40;;;;;;4881016;29;20973;-88
2022/08/19 11:13:55;;;;;;;3.77;3.57;;;27.90;77.50;;;;;;4881156;29;20477;-87
2022/08/19 11:16:29;;;;;;;3.27;3.17;;;27.90;77.50;;;;;;4881048;29;20879;-87
2022/08/19 11:18:59;;;;;;;3.77;3.40;;;27.90;77.40;;;;;;4880758;29;20493;-87
2022/08/19 11:21:30;;;;;;;3.33;3.13;;;27.90;77.30;;;;;;4880825;29;20464;-88
2022/08/19 14:06:23;;;;;;;3.43;3.23;;;27.80;77.30;;;;;;4885505;29;20476;-92
2022/08/19 14:08:50;;;;;;;3.10;3.00;;;27.80;77.10;;;;;;4882650;29;20537;-94
2022/08/19 14:11:17;;;;;;;3.10;2.90;;;27.80;76.80;;;;;;4882282;29;20450;-84
2022/08/19 14:13:44;;;;;;;3.27;2.93;;;27.80;76.60;;;;;;4881273;29;20866;-83
2022/08/19 14:16:12;;;;;;;3.80;3.50;;;27.90;76.50;;;;;;4881599;29;20524;-84
2022/08/19 14:18:39;;;;;;;2.77;2.67;;;27.90;76.40;;;;;;4881180;29;20584;-84
2022/08/19 14:21:07;;;;;;;3.20;3.10;;;27.90;76.20;;;;;;4881488;29;20446;-84
2022/08/19 14:23:36;;;;;;;2.87;2.77;;;27.90;76.20;;;;;;4881432;29;20477;-84
2022/08/19 14:26:08;;;;;;;3.17;2.97;;;27.90;76.20;;;;;;4881528;29;20446;-84
2022/08/19 14:28:35;;;;;;;4.13;2.93;;;27.90;76.20;;;;;;4881656;29;20450;-83
2022/08/19 14:31:02;;;;;;;2.87;2.77;;;27.90;76.10;;;;;;4881715;29;20465;-83
2022/08/19 14:33:29;;;;;;;3.40;3.20;;;27.90;76.10;;;;;;4880537;29;20456;-83
2022/08/19 14:35:55;;;;;;;3.13;2.90;;;27.90;76.00;;;;;;4881628;29;20452;-83
2022/08/19 14:38:22;;;;;;;3.30;3.20;;;27.90;76.00;;;;;;4881344;29;20584;-83
2022/08/19 14:40:51;;;;;;;3.57;3.00;;;27.90;76.10;;;;;;4881574;29;20446;-83
2022/08/19 14:43:19;;;;;;;3.13;2.93;;;27.90;76.00;;;;;;4881284;29;20454;-82
2022/08/19 14:45:46;;;;;;;3.27;3.07;;;27.90;76.00;;;;;;4881474;29;20486;-83
2022/08/19 14:48:13;;;;;;;3.00;2.90;;;27.90;76.00;;;;;;4881361;29;20550;-83
2022/08/19 14:50:40;;;;;;;3.10;3.00;;;27.90;75.90;;;;;;4881570;29;20450;-84
2022/08/19 14:53:08;;;;;;;2.97;2.87;;;27.90;75.90;;;;;;4881208;29;20489;-83
2022/08/19 14:55:36;;;;;;;3.07;2.87;;;27.90;75.90;;;;;;4889334;29;20544;-82
2022/08/19 14:58:08;;;;;;;3.00;2.90;;;27.90;75.90;;;;;;4881981;29;20485;-81
2022/08/19 15:00:34;;;;;;;3.27;3.17;;;28.00;76.10;;;;;;4888725;29;20450;-81
2022/08/19 15:03:01;;;;;;;3.13;2.93;;;27.90;76.10;;;;;;4888534;29;21029;-80
2022/08/19 15:05:28;;;;;;;2.70;2.60;;;27.90;76.10;;;;;;4893233;29;20488;-81
2022/08/19 15:07:56;;;;;;;2.87;2.77;;;27.90;76.00;;;;;;4902454;29;20832;-80
2022/08/19 15:10:24;;;;;;;2.67;2.57;;;27.90;76.00;;;;;;4911791;29;20452;-92
2022/08/19 15:12:52;;;;;;;3.27;3.07;;;27.90;76.00;;;;;;4900436;29;20449;-84
2022/08/19 15:15:22;;;;;;;2.80;2.70;;;27.90;76.00;;;;;;4910725;29;20440;-91
2022/08/19 15:17:49;;;;;;;2.90;2.80;;;27.90;75.90;;;;;;4914774;29;20448;-79
2022/08/19 15:20:19;;;;;;;3.07;2.97;;;27.90;75.90;;;;;;4916730;29;20958;-80
2022/08/19 15:22:46;;;;;;;2.30;2.20;;;27.90;75.90;;;;;;4918983;29;20483;-81
2022/08/19 15:25:18;;;;;;;3.40;3.30;;;27.90;75.90;;;;;;4918565;29;20948;-88
2022/08/19 15:27:45;;;;;;;2.87;2.67;;;27.90;75.80;;;;;;4905605;29;20460;-82
2022/08/19 15:30:13;;;;;;;3.10;3.00;;;27.90;75.90;;;;;;4902438;29;20445;-81
2022/08/19 15:32:41;;;;;;;2.63;2.53;;;27.90;75.90;;;;;;4914499;29;20464;-80
2022/08/19 15:35:08;;;;;;;2.80;2.70;;;27.90;75.80;;;;;;4905839;29;20559;-80
2022/08/19 15:37:35;;;;;;;2.83;2.73;;;27.90;75.80;;;;;;4917430;29;21039;-80
2022/08/19 15:40:04;;;;;;;3.10;3.00;;;27.90;76.70;;;;;;4913183;29;20521;-94
2022/08/19 15:42:30;;;;;;;2.90;2.80;;;27.90;75.90;;;;;;4908797;29;20479;-81
2022/08/19 15:44:58;;;;;;;3.03;2.83;;;27.90;75.80;;;;;;4918564;29;20448;-81
2022/08/19 15:47:25;;;;;;;2.73;2.63;;;27.90;75.90;;;;;;4901100;29;20453;-80
2022/08/19 15:49:53;;;;;;;2.80;2.70;;;27.90;75.80;;;;;;4918070;29;20547;-88
2022/08/19 15:52:20;;;;;;;3.20;3.10;;;27.90;75.80;;;;;;4917763;29;20450;-81
2022/08/19 15:54:47;;;;;;;2.70;2.60;;;27.90;75.80;;;;;;4915554;29;20480;-81
2022/08/19 16:08:14;;;;;;;3.60;3.40;;;27.90;76.00;;;;;;4924929;29;20482;-81
2022/08/19 16:10:41;;;;;;;3.13;2.93;;;27.90;76.30;;;;;;4921765;29;20863;-84
2022/08/19 16:13:09;;;;;;;2.73;2.63;;;27.90;76.30;;;;;;4917909;29;20531;-88
2022/08/19 16:15:36;;;;;;;2.93;2.60;;;27.90;76.30;;;;;;4918264;29;20452;-87
2022/08/19 16:18:03;;;;;;;3.30;3.17;;;28.00;76.40;;;;;;4917279;29;20436;-90
2022/08/19 16:20:32;;;;;;;3.43;3.13;;;28.00;76.40;;;;;;4915038;29;20873;-90
2022/08/19 16:23:00;;;;;;;3.37;3.17;;;28.00;76.40;;;;;;4898522;29;20455;-89
2022/08/19 16:25:27;;;;;;;8.30;3.00;;;28.00;76.40;;;;;;4898251;29;20886;-86
2022/08/19 16:27:55;;;;;;;3.43;3.23;;;28.00;76.40;;;;;;4898304;29;20518;-89
2022/08/19 16:30:21;;;;;;;3.13;2.83;;;28.00;76.40;;;;;;4898317;29;20535;-86
2022/08/19 16:32:48;;;;;;;3.47;3.27;;;28.00;76.40;;;;;;4898177;29;20945;-90
2022/08/19 16:35:15;;;;;;;3.20;3.00;;;28.00;76.40;;;;;;4898571;29;20883;-86
2022/08/19 16:37:43;;;;;;;2.90;2.80;;;28.00;76.40;;;;;;4898338;29;20895;-87
2022/08/19 16:40:11;;;;;;;3.10;3.00;;;28.00;76.30;;;;;;4897964;29;20544;-90
2022/08/19 16:42:38;;;;;;;3.40;3.20;;;28.00;76.40;;;;;;4898103;29;20539;-87
2022/08/19 16:45:07;;;;;;;3.03;2.93;;;28.00;76.40;;;;;;4898529;29;20449;-88
2022/08/19 16:47:35;;;;;;;3.60;3.40;;;28.00;76.30;;;;;;4907773;29;21016;-87
2022/08/19 16:50:02;;;;;;;3.00;2.80;;;28.00;76.30;;;;;;4917185;29;20475;-88
2022/08/19 16:52:29;;;;;;;3.20;3.10;;;28.00;76.20;;;;;;4917358;29;20487;-90
2022/08/19 16:54:57;;;;;;;3.07;2.97;;;28.00;76.20;;;;;;4916985;29;20452;-90
2022/08/19 16:57:24;;;;;;;3.07;2.97;;;28.00;76.20;;;;;;4918267;29;21018;-87
2022/08/19 16:59:51;;;;;;;3.80;3.50;;;28.00;76.20;;;;;;4920564;29;20495;-88
2022/08/19 17:02:20;;;;;;;3.30;3.17;;;28.00;76.20;;;;;;4920137;29;20479;-87
2022/08/19 17:04:48;;;;;;;2.90;2.80;;;28.00;76.10;;;;;;4919873;29;20511;-88
2022/08/19 17:07:15;;;;;;;3.20;2.90;;;28.10;76.20;;;;;;4919805;29;20483;-89
2022/08/19 17:09:42;;;;;;;3.27;3.10;;;28.00;76.10;;;;;;4919933;29;20444;-90
2022/08/19 17:12:11;;;;;;;3.23;3.03;;;28.00;76.10;;;;;;4920017;29;20538;-88
2022/08/19 17:14:38;;;;;;;3.03;2.93;;;28.00;76.90;;;;;;4919460;29;20567;-87
2022/08/19 17:17:05;;;;;;;3.53;3.20;;;28.00;76.10;;;;;;4919921;29;20925;-90
2022/08/19 17:19:32;;;;;;;2.83;2.73;;;28.00;76.10;;;;;;4919403;29;20578;-88
2022/08/19 17:21:59;;;;;;;3.03;2.93;;;28.00;76.10;;;;;;4919716;29;20462;-87
2022/08/19 17:24:26;;;;;;;3.63;3.33;;;28.10;76.10;;;;;;4910224;29;20487;-87
2022/08/19 17:26:53;;;;;;;3.53;3.33;;;28.00;76.00;;;;;;4901271;29;20555;-88
2022/08/19 17:29:21;;;;;;;3.63;3.43;;;28.00;76.80;;;;;;4905458;29;20543;-88
2022/08/19 17:31:48;;;;;;;3.40;3.30;;;28.00;76.00;;;;;;4918599;29;20551;-87
2022/08/19 17:34:16;;;;;;;3.70;3.50;;;28.00;76.00;;;;;;4920007;29;20536;-88
2022/08/19 17:36:43;;;;;;;2.97;2.77;;;28.00;76.00;;;;;;4905453;29;21035;-87
2022/08/19 17:39:09;;;;;;;4.37;4.17;;;28.00;76.00;;;;;;4901392;29;20480;-88
2022/08/19 17:41:36;;;;;;;3.60;3.40;;;28.10;76.10;;;;;;4901335;29;20460;-88
2022/08/19 17:44:04;;;;;;;3.60;3.40;;;28.10;76.00;;;;;;4901207;29;20524;-88
2022/08/19 17:46:32;;;;;;;2.77;2.67;;;28.00;75.90;;;;;;4900963;29;20459;-87
2022/08/19 17:48:59;;;;;;;3.93;3.63;;;28.00;76.00;;;;;;4914005;29;20857;-87
2022/08/19 17:51:41;;;;;;;2.90;2.80;;;28.00;76.00;;;;;;4920049;29;20543;-90
2022/08/19 17:54:09;;;;;;;3.23;3.13;;;28.10;76.00;;;;;;4908890;29;20523;-86
2022/08/19 17:56:36;;;;;;;3.40;3.27;;;28.00;76.00;;;;;;4909905;29;20456;-87
2022/08/19 17:59:04;;;;;;;3.10;3.00;;;28.00;75.80;;;;;;4901220;29;20492;-88
2022/08/19 18:01:32;;;;;;;3.43;3.10;;;28.00;75.80;;;;;;4901831;29;20473;-89
2022/08/19 18:04:00;;;;;;;3.40;3.20;;;28.00;75.80;;;;;;4900926;29;21276;-89
2022/08/19 18:06:27;;;;;;;3.33;3.23;;;28.00;75.80;;;;;;4900830;29;20472;-87
2022/08/19 18:08:55;;;;;;;4.00;3.47;;;28.10;76.00;;;;;;4900748;29;20445;-89
2022/08/19 18:11:22;;;;;;;3.53;3.40;;;28.00;75.80;;;;;;4901237;29;20453;-89
2022/08/19 18:13:49;;;;;;;4.20;3.90;;;28.00;75.90;;;;;;4901029;29;20477;-88
2022/08/19 18:16:17;;;;;;;3.20;2.93;;;28.10;75.90;;;;;;4900966;29;20448;-90
2022/08/19 18:18:45;;;;;;;3.30;3.10;;;28.00;75.90;;;;;;4900885;29;20815;-88
2022/08/19 18:21:12;;;;;;;3.90;3.70;;;28.00;75.80;;;;;;4901813;29;20475;-88
2022/08/19 18:23:40;;;;;;;3.63;3.43;;;28.00;75.80;;;;;;4901865;29;20867;-92
2022/08/19 18:26:07;;;;;;;3.50;3.30;;;28.00;75.80;;;;;;4902584;29;20493;-91
2022/08/19 18:28:34;;;;;;;4.23;3.93;;;28.00;75.80;;;;;;4901963;29;20464;-87
2022/08/19 18:31:03;;;;;;;7.93;7.07;;;28.00;75.70;;;;;;4900729;29;20960;-90
2022/08/19 18:33:30;;;;;;;10.43;8.67;;;28.00;75.70;;;;;;4900966;29;20816;-92
2022/08/19 18:35:58;;;;;;;8.80;7.50;;;28.00;75.70;;;;;;4900746;29;20455;-91
2022/08/19 18:49:25;;;;;;;6.83;6.33;;;28.00;75.40;;;;;;4901075;29;20444;-90
2022/08/19 18:51:55;;;;;;;6.80;6.13;;;28.00;75.40;;;;;;4900495;29;20445;-87
2022/08/19 18:54:24;;;;;;;7.67;6.00;;;28.00;75.20;;;;;;4899947;29;20453;-87
2022/08/19 18:56:54;;;;;;;6.50;5.57;;;28.00;75.20;;;;;;4900358;29;20965;-89
2022/08/19 18:59:21;;;;;;;5.90;5.40;;;28.00;75.10;;;;;;4900243;29;20746;-86
2022/08/19 19:01:51;;;;;;;6.33;5.73;;;28.00;75.20;;;;;;4900160;29;20464;-83
2022/08/19 19:04:20;;;;;;;6.20;5.40;;;28.00;75.10;;;;;;4900951;29;20494;-84
2022/08/19 19:06:47;;;;;;;9.10;4.50;;;28.00;75.10;;;;;;4899563;29;20480;-85
2022/08/19 19:09:19;;;;;;;6.23;5.73;;;28.00;75.10;;;;;;4900104;29;20449;-87
2022/08/19 19:11:49;;;;;;;6.10;5.50;;;28.00;75.10;;;;;;4901095;29;20544;-86
2022/08/19 19:14:20;;;;;;;5.80;5.27;;;28.00;76.00;;;;;;4900857;29;20953;-87
2022/08/19 19:16:48;;;;;;;6.43;5.60;;;28.00;75.20;;;;;;4898829;29;20463;-88
